Aérodrome :
LOGIN :

S'inscrire | Disclaimer

   EN    FR    IT 

 










Légende :    VFR   VFR Marginal   IFR   IFR Intensif   IFR Très Intensif
Visi : 
Plafond : 
>= 8 km
>= 3000ft
5 à 8 km
1000 à 3000 ft
1500m à 5 km
500 à 1000 ft
800 à 1500m
200 à 500 ft
< 800m
< 200 ft
Symboles :   Orages  Brouillard  Fortes neiges  Fortes précipitations  Vent > 20 kt
SIGMETs :   Divers  Orages  Givrage  Turbulence  Onde Orograph.  Cendres Volcan.






- Altitude de l'aérodrome : 393 ft
- Code IATA : TYF


ESST - Torsby

DERNIER METAR :
  • 170020Z AUTO 32006KT 3500 DZ FEW007/// OVC009/// 02/01 Q1004 RESHUP RERA

METARs EXPIRÉS :
  • 162350Z AUTO 33005KT 6000 BR OVC010/// 02/01 Q1005
  • 162320Z AUTO 33006KT 320V020 9999 -RA OVC010/// 02/01 Q1005
  • 162250Z AUTO 32007KT 7000 -RA OVC010/// 02/01 Q1005
  • 162220Z AUTO 32007KT 7000 -RA OVC011/// 02/01 Q1005 REDZ
  • 162150Z AUTO 32008KT 4300 DZ OVC011/// 01/01 Q1005

TAF N/A



MET'MAP, la Météo Aéronautique d'un coup d'oeil ! - Copyright ORBIFLY Décembre 2007 - Disclaimer

ORBIFLY MET'MAP TEAM :

Programmation & Développement : Alexandra Zaïnal
Conception & Développement : Baudouin d'Aumeries
Co-Programmation & Développement : Marc-Olivier Méhu
Soutien technique & logistique : Manuel Goepfert

Contact : metmap@orbifly.com




SOURCES & CREDITS :

   NOAA